Millerstown, Pennsylvania
Current Conditions -  °F | °C
As of 12:53 PM on Friday 21 Nov 2014 (Local Time) from KSEG Reporting Station
Overcast Overcast  
Wind Chill: 26°   Ceiling: 5500
Heat Index: 33°   Visibility: 10mi
Dew Point:   Wind: 8mph
Humidity: 35%   Direction: 300°WNW
Pressure: 30.39"   Gusts: 18mph
Location:  40.55°N, 77.15°W
Report Text: KSEG 211753Z AUTO 30007G16KT 250V330 10SM OVC055 01/M13 A3039 RMK AO2 SLP295 T00061133 10006 21050 51004
Loading
Personal Weather Stations






























Interactive Weather Map New forecast layout! Learn more

10-Day Weather Forecast

Advertisements
Track Severe Weather on mobile